sensor_id;sensor_type;location;lat;lon;timestamp;pressure;altitude;pressure_sealevel;temperature;humidity
27304;BME280;14791;52.392;13.092;2023-02-28T00:01:39;102708.45;;;8.77;43.35
27304;BME280;14791;52.392;13.092;2023-02-28T00:04:08;102710.20;;;8.78;43.36
27304;BME280;14791;52.392;13.092;2023-02-28T00:06:37;102714.20;;;8.78;43.43
27304;BME280;14791;52.392;13.092;2023-02-28T00:09:06;102715.05;;;8.80;43.45
27304;BME280;14791;52.392;13.092;2023-02-28T00:11:35;102716.76;;;8.82;43.49
27304;BME280;14791;52.392;13.092;2023-02-28T00:14:05;102718.09;;;8.82;43.49
27304;BME280;14791;52.392;13.092;2023-02-28T00:16:34;102712.73;;;8.84;43.49
27304;BME280;14791;52.392;13.092;2023-02-28T00:19:03;102713.14;;;8.85;43.47
27304;BME280;14791;52.392;13.092;2023-02-28T00:21:32;102722.45;;;8.86;43.43
27304;BME280;14791;52.392;13.092;2023-02-28T00:24:01;102717.55;;;8.86;43.43
27304;BME280;14791;52.392;13.092;2023-02-28T00:26:30;102711.33;;;8.87;43.48
27304;BME280;14791;52.392;13.092;2023-02-28T00:28:58;102710.40;;;8.88;43.47
27304;BME280;14791;52.392;13.092;2023-02-28T00:31:27;102714.84;;;8.89;43.48
27304;BME280;14791;52.392;13.092;2023-02-28T00:33:56;102710.38;;;8.89;43.48
27304;BME280;14791;52.392;13.092;2023-02-28T00:36:25;102706.36;;;8.91;43.47
27304;BME280;14791;52.392;13.092;2023-02-28T00:38:55;102714.75;;;8.92;43.48
27304;BME280;14791;52.392;13.092;2023-02-28T00:41:23;102711.60;;;8.94;43.47
27304;BME280;14791;52.392;13.092;2023-02-28T00:43:52;102716.91;;;8.96;43.49
27304;BME280;14791;52.392;13.092;2023-02-28T00:46:21;102711.11;;;8.96;43.49
27304;BME280;14791;52.392;13.092;2023-02-28T00:48:51;102719.96;;;8.98;43.50
27304;BME280;14791;52.392;13.092;2023-02-28T00:51:20;102725.31;;;8.97;43.51
27304;BME280;14791;52.392;13.092;2023-02-28T00:53:49;102720.39;;;8.98;43.51
27304;BME280;14791;52.392;13.092;2023-02-28T00:56:18;102724.36;;;8.99;43.50
27304;BME280;14791;52.392;13.092;2023-02-28T00:58:48;102719.96;;;8.98;43.53
27304;BME280;14791;52.392;13.092;2023-02-28T01:01:16;102720.77;;;9.00;43.50
27304;BME280;14791;52.392;13.092;2023-02-28T01:03:45;102720.77;;;9.00;43.44
27304;BME280;14791;52.392;13.092;2023-02-28T01:06:14;102717.21;;;9.01;43.43
27304;BME280;14791;52.392;13.092;2023-02-28T01:08:43;102718.08;;;9.02;43.41
27304;BME280;14791;52.392;13.092;2023-02-28T01:11:14;102718.06;;;9.03;43.38
27304;BME280;14791;52.392;13.092;2023-02-28T01:13:44;102719.80;;;9.04;43.33
27304;BME280;14791;52.392;13.092;2023-02-28T01:16:15;102723.39;;;9.03;43.36
27304;BME280;14791;52.392;13.092;2023-02-28T01:18:44;102719.88;;;9.01;43.37
27304;BME280;14791;52.392;13.092;2023-02-28T01:21:15;102719.41;;;9.02;43.31
27304;BME280;14791;52.392;13.092;2023-02-28T01:23:46;102720.77;;;9.00;43.33
27304;BME280;14791;52.392;13.092;2023-02-28T01:26:18;102711.91;;;9.00;43.32
27304;BME280;14791;52.392;13.092;2023-02-28T01:28:47;102713.72;;;8.98;43.29
27304;BME280;14791;52.392;13.092;2023-02-28T01:31:17;102713.78;;;8.96;43.25
27304;BME280;14791;52.392;13.092;2023-02-28T01:33:46;102707.16;;;8.93;43.26
27304;BME280;14791;52.392;13.092;2023-02-28T01:36:18;102710.30;;;8.92;43.30
27304;BME280;14791;52.392;13.092;2023-02-28T01:38:48;102706.84;;;8.89;43.35
27304;BME280;14791;52.392;13.092;2023-02-28T01:41:23;102710.00;;;8.87;43.36
27304;BME280;14791;52.392;13.092;2023-02-28T01:44:03;102705.15;;;8.85;43.33
27304;BME280;14791;52.392;13.092;2023-02-28T01:46:34;102695.46;;;8.81;43.31
27304;BME280;14791;52.392;13.092;2023-02-28T01:49:12;102704.47;;;8.77;43.33
27304;BME280;14791;52.392;13.092;2023-02-28T01:51:50;102702.31;;;8.73;43.33
27304;BME280;14791;52.392;13.092;2023-02-28T01:54:30;102700.19;;;8.69;43.38
27304;BME280;14791;52.392;13.092;2023-02-28T01:57:05;102694.01;;;8.67;43.44
27304;BME280;14791;52.392;13.092;2023-02-28T01:59:43;102695.84;;;8.64;43.46
27304;BME280;14791;52.392;13.092;2023-02-28T02:02:08;102696.80;;;8.61;43.50
27304;BME280;14791;52.392;13.092;2023-02-28T02:04:58;102697.28;;;8.59;43.52
27304;BME280;14791;52.392;13.092;2023-02-28T02:07:31;102695.95;;;8.59;43.52
27304;BME280;14791;52.392;13.092;2023-02-28T02:10:04;102699.63;;;8.54;43.66
27304;BME280;14791;52.392;13.092;2023-02-28T02:15:24;102707.16;;;8.54;43.73
27304;BME280;14791;52.392;13.092;2023-02-28T02:17:51;102703.63;;;8.54;43.79
27304;BME280;14791;52.392;13.092;2023-02-28T02:32:19;102704.37;;;8.38;43.93
27304;BME280;14791;52.392;13.092;2023-02-28T02:37:36;102701.86;;;8.31;44.12
27304;BME280;14791;52.392;13.092;2023-02-28T02:40:17;102700.52;;;8.31;44.05
27304;BME280;14791;52.392;13.092;2023-02-28T02:42:52;102698.27;;;8.33;43.97
27304;BME280;14791;52.392;13.092;2023-02-28T02:45:32;102702.74;;;8.30;43.95
27304;BME280;14791;52.392;13.092;2023-02-28T02:48:05;102700.16;;;8.27;43.89
27304;BME280;14791;52.392;13.092;2023-02-28T02:50:37;102702.42;;;8.25;43.83
27304;BME280;14791;52.392;13.092;2023-02-28T02:53:09;102704.24;;;8.23;43.79
27304;BME280;14791;52.392;13.092;2023-02-28T02:55:42;102702.06;;;8.21;43.79
27304;BME280;14791;52.392;13.092;2023-02-28T02:58:14;102704.38;;;8.17;43.78
27304;BME280;14791;52.392;13.092;2023-02-28T03:00:46;102706.66;;;8.14;43.78
27304;BME280;14791;52.392;13.092;2023-02-28T03:03:16;102699.19;;;8.09;43.76
27304;BME280;14791;52.392;13.092;2023-02-28T03:05:50;102697.93;;;8.06;43.75
27304;BME280;14791;52.392;13.092;2023-02-28T03:08:19;102701.55;;;8.02;43.65
27304;BME280;14791;52.392;13.092;2023-02-28T03:10:57;102697.70;;;7.96;43.60
27304;BME280;14791;52.392;13.092;2023-02-28T03:19:42;102709.75;;;7.69;43.68
27304;BME280;14791;52.392;13.092;2023-02-28T03:24:49;102711.09;;;7.41;43.81
27304;BME280;14791;52.392;13.092;2023-02-28T03:27:27;102710.77;;;7.34;43.84
27304;BME280;14791;52.392;13.092;2023-02-28T03:30:04;102709.55;;;7.28;43.85
27304;BME280;14791;52.392;13.092;2023-02-28T03:32:37;102713.64;;;7.20;43.82
27304;BME280;14791;52.392;13.092;2023-02-28T03:35:09;102712.89;;;7.14;43.83
27304;BME280;14791;52.392;13.092;2023-02-28T03:37:40;102715.22;;;7.05;43.87
27304;BME280;14791;52.392;13.092;2023-02-28T03:40:15;102720.20;;;6.99;43.88
27304;BME280;14791;52.392;13.092;2023-02-28T03:42:47;102718.53;;;6.92;43.92
27304;BME280;14791;52.392;13.092;2023-02-28T03:45:22;102721.73;;;6.84;43.96
27304;BME280;14791;52.392;13.092;2023-02-28T03:48:01;102718.27;;;6.77;44.04
27304;BME280;14791;52.392;13.092;2023-02-28T03:50:32;102721.91;;;6.70;44.12
27304;BME280;14791;52.392;13.092;2023-02-28T03:53:04;102718.03;;;6.64;44.19
27304;BME280;14791;52.392;13.092;2023-02-28T03:55:32;102723.41;;;6.59;44.27
27304;BME280;14791;52.392;13.092;2023-02-28T03:58:22;102718.20;;;6.52;44.35
27304;BME280;14791;52.392;13.092;2023-02-28T04:01:04;102729.30;;;6.48;44.38
27304;BME280;14791;52.392;13.092;2023-02-28T04:03:38;102727.67;;;6.38;44.45
27304;BME280;14791;52.392;13.092;2023-02-28T04:06:13;102733.48;;;6.33;44.52
27304;BME280;14791;52.392;13.092;2023-02-28T04:08:39;102730.89;;;6.27;44.56
27304;BME280;14791;52.392;13.092;2023-02-28T04:13:49;102730.53;;;6.20;44.65
27304;BME280;14791;52.392;13.092;2023-02-28T04:16:18;102736.80;;;6.12;44.71
27304;BME280;14791;52.392;13.092;2023-02-28T04:18:47;102725.81;;;6.08;44.77
27304;BME280;14791;52.392;13.092;2023-02-28T04:21:16;102725.83;;;6.05;44.80
27304;BME280;14791;52.392;13.092;2023-02-28T04:23:47;102730.27;;;6.03;44.80
27304;BME280;14791;52.392;13.092;2023-02-28T04:26:16;102728.56;;;5.99;44.81
27304;BME280;14791;52.392;13.092;2023-02-28T04:28:45;102725.50;;;5.96;44.77
27304;BME280;14791;52.392;13.092;2023-02-28T04:31:13;102729.06;;;5.94;44.80
27304;BME280;14791;52.392;13.092;2023-02-28T04:33:42;102728.17;;;5.89;44.84
27304;BME280;14791;52.392;13.092;2023-02-28T04:36:11;102736.62;;;5.87;44.88
27304;BME280;14791;52.392;13.092;2023-02-28T04:38:42;102733.11;;;5.83;44.87
27304;BME280;14791;52.392;13.092;2023-02-28T04:41:12;102733.16;;;5.79;44.87
27304;BME280;14791;52.392;13.092;2023-02-28T04:43:41;102736.30;;;5.75;44.91
27304;BME280;14791;52.392;13.092;2023-02-28T04:46:10;102737.20;;;5.72;44.93
27304;BME280;14791;52.392;13.092;2023-02-28T04:48:40;102736.80;;;5.68;44.99
27304;BME280;14791;52.392;13.092;2023-02-28T04:51:11;102739.48;;;5.65;45.05
27304;BME280;14791;52.392;13.092;2023-02-28T04:53:41;102744.38;;;5.61;45.08
27304;BME280;14791;52.392;13.092;2023-02-28T04:56:13;102745.73;;;5.58;45.08
27304;BME280;14791;52.392;13.092;2023-02-28T04:58:42;102745.73;;;5.55;45.08
27304;BME280;14791;52.392;13.092;2023-02-28T05:01:25;102744.03;;;5.51;45.14
27304;BME280;14791;52.392;13.092;2023-02-28T05:03:57;102749.78;;;5.47;45.16
27304;BME280;14791;52.392;13.092;2023-02-28T05:06:27;102749.41;;;5.42;45.24
27304;BME280;14791;52.392;13.092;2023-02-28T05:08:58;102752.05;;;5.39;45.28
27304;BME280;14791;52.392;13.092;2023-02-28T05:11:32;102749.44;;;5.36;45.28
27304;BME280;14791;52.392;13.092;2023-02-28T05:14:08;102755.19;;;5.33;45.27
27304;BME280;14791;52.392;13.092;2023-02-28T05:16:36;102754.35;;;5.30;45.33
27304;BME280;14791;52.392;13.092;2023-02-28T05:19:05;102746.85;;;5.26;45.33
27304;BME280;14791;52.392;13.092;2023-02-28T05:21:47;102749.53;;;5.23;45.31
27304;BME280;14791;52.392;13.092;2023-02-28T05:24:13;102752.19;;;5.22;45.33
27304;BME280;14791;52.392;13.092;2023-02-28T05:26:40;102756.64;;;5.18;45.35
27304;BME280;14791;52.392;13.092;2023-02-28T05:29:09;102755.77;;;5.16;45.41
27304;BME280;14791;52.392;13.092;2023-02-28T05:31:39;102753.59;;;5.13;45.37
27304;BME280;14791;52.392;13.092;2023-02-28T05:34:08;102753.18;;;5.10;45.40
27304;BME280;14791;52.392;13.092;2023-02-28T05:36:39;102758.47;;;5.07;45.43
27304;BME280;14791;52.392;13.092;2023-02-28T05:39:08;102758.50;;;5.04;45.50
27304;BME280;14791;52.392;13.092;2023-02-28T05:41:42;102762.92;;;5.02;45.56
27304;BME280;14791;52.392;13.092;2023-02-28T05:44:12;102761.17;;;4.98;45.55
27304;BME280;14791;52.392;13.092;2023-02-28T05:46:41;102762.98;;;4.96;45.56
27304;BME280;14791;52.392;13.092;2023-02-28T05:49:10;102767.41;;;4.94;45.58
27304;BME280;14791;52.392;13.092;2023-02-28T05:51:39;102764.75;;;4.90;45.58
27304;BME280;14791;52.392;13.092;2023-02-28T05:54:08;102765.66;;;4.89;45.61
27304;BME280;14791;52.392;13.092;2023-02-28T05:56:37;102770.07;;;4.87;45.64
27304;BME280;14791;52.392;13.092;2023-02-28T05:59:07;102767.00;;;4.85;45.65
27304;BME280;14791;52.392;13.092;2023-02-28T06:01:38;102774.94;;;4.83;45.71
27304;BME280;14791;52.392;13.092;2023-02-28T06:04:09;102774.09;;;4.81;45.77
27304;BME280;14791;52.392;13.092;2023-02-28T06:06:38;102783.36;;;4.81;45.81
27304;BME280;14791;52.392;13.092;2023-02-28T06:09:07;102786.88;;;4.80;45.83
27304;BME280;14791;52.392;13.092;2023-02-28T06:11:36;102783.81;;;4.79;45.85
27304;BME280;14791;52.392;13.092;2023-02-28T06:14:06;102787.78;;;4.79;45.93
27304;BME280;14791;52.392;13.092;2023-02-28T06:16:35;102786.00;;;4.78;46.03
27304;BME280;14791;52.392;13.092;2023-02-28T06:19:04;102783.35;;;4.78;46.07
27304;BME280;14791;52.392;13.092;2023-02-28T06:21:33;102783.35;;;4.78;46.08
27304;BME280;14791;52.392;13.092;2023-02-28T06:24:03;102781.16;;;4.79;46.08
27304;BME280;14791;52.392;13.092;2023-02-28T06:26:32;102786.88;;;4.80;46.12
27304;BME280;14791;52.392;13.092;2023-02-28T06:29:01;102788.66;;;4.81;46.16
27304;BME280;14791;52.392;13.092;2023-02-28T06:31:30;102788.20;;;4.82;46.19
27304;BME280;14791;52.392;13.092;2023-02-28T06:33:59;102790.83;;;4.83;46.26
27304;BME280;14791;52.392;13.092;2023-02-28T06:36:28;102800.55;;;4.84;46.32
27304;BME280;14791;52.392;13.092;2023-02-28T06:38:57;102801.84;;;4.87;46.41
27304;BME280;14791;52.392;13.092;2023-02-28T06:41:27;102807.13;;;4.90;46.47
27304;BME280;14791;52.392;13.092;2023-02-28T06:43:56;102800.92;;;4.93;46.57
27304;BME280;14791;52.392;13.092;2023-02-28T06:46:25;102813.73;;;4.97;46.60
27304;BME280;14791;52.392;13.092;2023-02-28T06:48:53;102819.87;;;5.02;46.60
27304;BME280;14791;52.392;13.092;2023-02-28T06:51:22;102815.88;;;5.05;46.60
27304;BME280;14791;52.392;13.092;2023-02-28T06:53:52;102811.88;;;5.09;46.64
27304;BME280;14791;52.392;13.092;2023-02-28T06:56:21;102814.53;;;5.13;46.72
27304;BME280;14791;52.392;13.092;2023-02-28T06:58:50;102813.61;;;5.17;46.79
27304;BME280;14791;52.392;13.092;2023-02-28T07:01:20;102818.42;;;5.22;46.88
27304;BME280;14791;52.392;13.092;2023-02-28T07:03:51;102814.88;;;5.26;46.92
27304;BME280;14791;52.392;13.092;2023-02-28T07:06:21;102818.83;;;5.32;46.92
27304;BME280;14791;52.392;13.092;2023-02-28T07:08:51;102820.13;;;5.37;46.92
27304;BME280;14791;52.392;13.092;2023-02-28T07:11:23;102821.84;;;5.42;47.00
27304;BME280;14791;52.392;13.092;2023-02-28T07:13:54;102825.79;;;5.48;47.09
27304;BME280;14791;52.392;13.092;2023-02-28T07:16:24;102825.73;;;5.54;47.22
27304;BME280;14791;52.392;13.092;2023-02-28T07:18:54;102825.24;;;5.61;47.30
27304;BME280;14791;52.392;13.092;2023-02-28T07:21:23;102823.43;;;5.68;47.37
27304;BME280;14791;52.392;13.092;2023-02-28T07:23:52;102829.09;;;5.76;47.41
27304;BME280;14791;52.392;13.092;2023-02-28T07:26:21;102831.25;;;5.85;47.40
27304;BME280;14791;52.392;13.092;2023-02-28T07:28:50;102827.19;;;5.92;47.38
27304;BME280;14791;52.392;13.092;2023-02-28T07:31:19;102828.48;;;6.00;47.32
27304;BME280;14791;52.392;13.092;2023-02-28T07:33:48;102831.50;;;6.09;47.26
27304;BME280;14791;52.392;13.092;2023-02-28T07:36:17;102830.55;;;6.16;47.22
27304;BME280;14791;52.392;13.092;2023-02-28T07:38:49;102828.23;;;6.25;47.16
27304;BME280;14791;52.392;13.092;2023-02-28T07:41:20;102837.89;;;6.32;47.18
27304;BME280;14791;52.392;13.092;2023-02-28T07:43:53;102827.63;;;6.39;47.12
27304;BME280;14791;52.392;13.092;2023-02-28T07:46:23;102829.32;;;6.48;47.08
27304;BME280;14791;52.392;13.092;2023-02-28T07:48:52;102834.53;;;6.55;47.04
27304;BME280;14791;52.392;13.092;2023-02-28T07:51:22;102833.56;;;6.63;46.99
27304;BME280;14791;52.392;13.092;2023-02-28T07:53:51;102827.73;;;6.71;46.99
27304;BME280;14791;52.392;13.092;2023-02-28T07:56:20;102827.63;;;6.78;46.96
27304;BME280;14791;52.392;13.092;2023-02-28T07:58:49;102827.98;;;6.86;46.84
27304;BME280;14791;52.392;13.092;2023-02-28T08:01:18;102833.64;;;6.94;46.78
27304;BME280;14791;52.392;13.092;2023-02-28T08:03:47;102827.31;;;7.03;46.68
27304;BME280;14791;52.392;13.092;2023-02-28T08:06:19;102833.83;;;7.12;46.53
27304;BME280;14791;52.392;13.092;2023-02-28T08:08:48;102829.72;;;7.21;46.46
27304;BME280;14791;52.392;13.092;2023-02-28T08:11:18;102824.70;;;7.30;46.44
27304;BME280;14791;52.392;13.092;2023-02-28T08:13:47;102824.56;;;7.39;46.28
27304;BME280;14791;52.392;13.092;2023-02-28T08:16:16;102833.27;;;7.51;46.11
27304;BME280;14791;52.392;13.092;2023-02-28T08:18:47;102833.53;;;7.62;45.97
27304;BME280;14791;52.392;13.092;2023-02-28T08:21:16;102828.94;;;7.72;45.56
27304;BME280;14791;52.392;13.092;2023-02-28T08:23:49;102824.33;;;7.83;45.07
27304;BME280;14791;52.392;13.092;2023-02-28T08:26:19;102828.10;;;7.96;44.89
27304;BME280;14791;52.392;13.092;2023-02-28T08:28:48;102833.66;;;8.07;44.84
27304;BME280;14791;52.392;13.092;2023-02-28T08:31:18;102832.58;;;8.18;44.67
27304;BME280;14791;52.392;13.092;2023-02-28T08:33:48;102834.20;;;8.26;44.65
27304;BME280;14791;52.392;13.092;2023-02-28T08:36:18;102839.78;;;8.37;44.25
27304;BME280;14791;52.392;13.092;2023-02-28T08:38:47;102833.86;;;8.46;43.98
27304;BME280;14791;52.392;13.092;2023-02-28T08:41:16;102835.47;;;8.55;43.75
27304;BME280;14791;52.392;13.092;2023-02-28T08:43:45;102836.64;;;8.63;43.61
27304;BME280;14791;52.392;13.092;2023-02-28T08:46:14;102830.67;;;8.72;43.57
27304;BME280;14791;52.392;13.092;2023-02-28T08:48:43;102830.50;;;8.80;43.16
27304;BME280;14791;52.392;13.092;2023-02-28T08:51:17;102840.49;;;8.91;42.78
27304;BME280;14791;52.392;13.092;2023-02-28T08:53:48;102833.66;;;8.99;42.66
27304;BME280;14791;52.392;13.092;2023-02-28T08:56:17;102839.69;;;9.07;42.69
27304;BME280;14791;52.392;13.092;2023-02-28T08:58:47;102829.30;;;9.14;42.50
27304;BME280;14791;52.392;13.092;2023-02-28T09:01:21;102828.70;;;9.23;42.15
27304;BME280;14791;52.392;13.092;2023-02-28T09:03:51;102834.31;;;9.30;42.23
27304;BME280;14791;52.392;13.092;2023-02-28T09:06:23;102826.21;;;9.34;42.50
27304;BME280;14791;52.392;13.092;2023-02-28T09:08:52;102829.16;;;9.42;42.07
27304;BME280;14791;52.392;13.092;2023-02-28T09:11:21;102827.72;;;9.46;41.61
27304;BME280;14791;52.392;13.092;2023-02-28T09:13:50;102827.98;;;9.53;41.39
27304;BME280;14791;52.392;13.092;2023-02-28T09:16:19;102832.31;;;9.57;41.17
27304;BME280;14791;52.392;13.092;2023-02-28T09:18:48;102830.44;;;9.63;41.10
27304;BME280;14791;52.392;13.092;2023-02-28T09:21:18;102833.87;;;9.68;41.17
27304;BME280;14791;52.392;13.092;2023-02-28T09:23:49;102831.49;;;9.73;41.47
27304;BME280;14791;52.392;13.092;2023-02-28T09:26:21;102829.64;;;9.77;41.68
27304;BME280;14791;52.392;13.092;2023-02-28T09:28:53;102832.23;;;9.80;41.82
27304;BME280;14791;52.392;13.092;2023-02-28T09:31:24;102829.44;;;9.85;41.42
27304;BME280;14791;52.392;13.092;2023-02-28T09:33:55;102838.20;;;9.90;41.36
27304;BME280;14791;52.392;13.092;2023-02-28T09:36:25;102830.08;;;9.94;40.97
27304;BME280;14791;52.392;13.092;2023-02-28T09:38:54;102833.10;;;9.98;40.84
27304;BME280;14791;52.392;13.092;2023-02-28T09:41:25;102832.52;;;10.04;40.63
27304;BME280;14791;52.392;13.092;2023-02-28T09:43:59;102834.60;;;10.09;40.58
27304;BME280;14791;52.392;13.092;2023-02-28T09:46:46;102834.48;;;10.13;40.17
27304;BME280;14791;52.392;13.092;2023-02-28T09:49:17;102829.02;;;10.18;39.96
27304;BME280;14791;52.392;13.092;2023-02-28T09:52:29;102828.09;;;10.19;40.27
27304;BME280;14791;52.392;13.092;2023-02-28T09:54:31;102829.80;;;10.21;40.05
27304;BME280;14791;52.392;13.092;2023-02-28T09:59:44;102837.30;;;10.25;39.82
27304;BME280;14791;52.392;13.092;2023-02-28T10:05:13;102835.00;;;10.28;39.88
27304;BME280;14791;52.392;13.092;2023-02-28T10:10:48;102836.30;;;10.29;39.85
27304;BME280;14791;52.392;13.092;2023-02-28T10:13:25;102831.42;;;10.29;40.11
27304;BME280;14791;52.392;13.092;2023-02-28T10:15:56;102836.27;;;10.31;40.49
27304;BME280;14791;52.392;13.092;2023-02-28T10:18:37;102829.19;;;10.30;41.29
27304;BME280;14791;52.392;13.092;2023-02-28T10:21:00;102824.13;;;10.35;40.91
27304;BME280;14791;52.392;13.092;2023-02-28T10:23:33;102830.22;;;10.40;41.37
27304;BME280;14791;52.392;13.092;2023-02-28T10:26:13;102828.75;;;10.45;40.57
27304;BME280;14791;52.392;13.092;2023-02-28T10:28:44;102825.95;;;10.50;40.65
27304;BME280;14791;52.392;13.092;2023-02-28T10:31:19;102829.00;;;10.52;40.02
27304;BME280;14791;52.392;13.092;2023-02-28T10:33:48;102824.42;;;10.56;39.55
27304;BME280;14791;52.392;13.092;2023-02-28T10:36:19;102837.29;;;10.58;39.44
27304;BME280;14791;52.392;13.092;2023-02-28T10:38:49;102832.75;;;10.61;39.51
27304;BME280;14791;52.392;13.092;2023-02-28T10:41:27;102827.31;;;10.64;39.32
27304;BME280;14791;52.392;13.092;2023-02-28T10:44:20;102829.45;;;10.68;38.98
27304;BME280;14791;52.392;13.092;2023-02-28T10:46:29;102828.11;;;10.68;38.99
27304;BME280;14791;52.392;13.092;2023-02-28T10:49:05;102823.17;;;10.69;38.72
27304;BME280;14791;52.392;13.092;2023-02-28T10:51:39;102831.19;;;10.69;39.00
27304;BME280;14791;52.392;13.092;2023-02-28T10:54:23;102826.34;;;10.67;38.79
27304;BME280;14791;52.392;13.092;2023-02-28T10:59:36;102820.90;;;10.70;39.03
27304;BME280;14791;52.392;13.092;2023-02-28T11:04:53;102813.28;;;10.73;39.12
27304;BME280;14791;52.392;13.092;2023-02-28T11:07:25;102819.43;;;10.75;38.95
27304;BME280;14791;52.392;13.092;2023-02-28T11:09:57;102813.95;;;10.79;39.21
27304;BME280;14791;52.392;13.092;2023-02-28T11:12:29;102811.61;;;10.83;38.77
27304;BME280;14791;52.392;13.092;2023-02-28T11:15:05;102808.40;;;10.87;38.83
27304;BME280;14791;52.392;13.092;2023-02-28T11:17:34;102809.16;;;10.91;38.63
27304;BME280;14791;52.392;13.092;2023-02-28T11:20:05;102804.66;;;10.93;38.43
27304;BME280;14791;52.392;13.092;2023-02-28T11:22:38;102800.20;;;10.92;38.23
27304;BME280;14791;52.392;13.092;2023-02-28T11:25:32;102787.77;;;10.91;38.40
27304;BME280;14791;52.392;13.092;2023-02-28T11:27:54;102791.39;;;10.90;38.31
27304;BME280;14791;52.392;13.092;2023-02-28T11:30:32;102785.23;;;10.86;38.56
27304;BME280;14791;52.392;13.092;2023-02-28T11:35:46;102774.30;;;10.94;38.42
27304;BME280;14791;52.392;13.092;2023-02-28T11:38:17;102774.30;;;10.94;38.42
27304;BME280;14791;52.392;13.092;2023-02-28T11:43:49;102773.98;;;11.04;38.37
27304;BME280;14791;52.392;13.092;2023-02-28T11:46:33;102771.17;;;11.09;38.39
27304;BME280;14791;52.392;13.092;2023-02-28T11:52:06;102764.05;;;11.08;37.91
27304;BME280;14791;52.392;13.092;2023-02-28T12:11:22;102761.59;;;11.02;38.38
27304;BME280;14791;52.392;13.092;2023-02-28T12:14:20;102768.53;;;11.07;38.00
27304;BME280;14791;52.392;13.092;2023-02-28T12:17:10;102765.75;;;11.11;37.93
27304;BME280;14791;52.392;13.092;2023-02-28T12:19:53;102773.34;;;11.11;38.10
27304;BME280;14791;52.392;13.092;2023-02-28T12:28:10;102758.02;;;11.16;37.84
27304;BME280;14791;52.392;13.092;2023-02-28T12:30:45;102756.67;;;11.16;37.72
27304;BME280;14791;52.392;13.092;2023-02-28T12:33:14;102759.64;;;11.20;37.47
27304;BME280;14791;52.392;13.092;2023-02-28T12:36:03;102758.73;;;11.21;37.53
27304;BME280;14791;52.392;13.092;2023-02-28T12:38:45;102762.14;;;11.26;37.33
27304;BME280;14791;52.392;13.092;2023-02-28T12:41:00;102756.67;;;11.29;38.99
27304;BME280;14791;52.392;13.092;2023-02-28T12:43:40;102751.64;;;11.34;38.37
27304;BME280;14791;52.392;13.092;2023-02-28T12:46:10;102748.35;;;11.39;38.05
27304;BME280;14791;52.392;13.092;2023-02-28T12:48:48;102741.47;;;11.45;37.59
27304;BME280;14791;52.392;13.092;2023-02-28T12:51:20;102733.22;;;11.51;37.37
27304;BME280;14791;52.392;13.092;2023-02-28T12:59:06;102722.28;;;11.70;37.15
27304;BME280;14791;52.392;13.092;2023-02-28T13:04:45;102705.38;;;12.55;37.81
27304;BME280;14791;52.392;13.092;2023-02-28T13:10:08;102699.84;;;14.29;37.81
27304;BME280;14791;52.392;13.092;2023-02-28T13:12:46;102696.73;;;15.31;37.57
27304;BME280;14791;52.392;13.092;2023-02-28T13:15:25;102693.48;;;16.27;36.77
27304;BME280;14791;52.392;13.092;2023-02-28T13:18:00;102689.25;;;17.18;35.93
27304;BME280;14791;52.392;13.092;2023-02-28T13:20:34;102682.44;;;18.02;35.07
27304;BME280;14791;52.392;13.092;2023-02-28T13:23:04;102688.55;;;18.76;34.39
27304;BME280;14791;52.392;13.092;2023-02-28T13:28:11;102676.61;;;19.92;32.82
27304;BME280;14791;52.392;13.092;2023-02-28T13:33:28;102673.73;;;20.82;31.93
27304;BME280;14791;52.392;13.092;2023-02-28T13:38:58;102671.36;;;21.55;31.70
27304;BME280;14791;52.392;13.092;2023-02-28T13:49:25;102678.48;;;22.48;30.03
27304;BME280;14791;52.392;13.092;2023-02-28T13:52:12;102668.95;;;22.48;29.65
27304;BME280;14791;52.392;13.092;2023-02-28T13:55:03;102666.36;;;22.41;29.48
27304;BME280;14791;52.392;13.092;2023-02-28T14:00:28;102672.21;;;22.25;29.88
27304;BME280;14791;52.392;13.092;2023-02-28T14:06:18;102668.97;;;22.20;30.10
27304;BME280;14791;52.392;13.092;2023-02-28T14:08:55;102666.87;;;22.23;30.19
27304;BME280;14791;52.392;13.092;2023-02-28T14:11:38;102664.29;;;22.27;29.87
27304;BME280;14791;52.392;13.092;2023-02-28T14:14:03;102664.77;;;22.33;29.62
27304;BME280;14791;52.392;13.092;2023-02-28T14:16:46;102662.19;;;22.37;29.43
27304;BME280;14791;52.392;13.092;2023-02-28T14:19:26;102662.52;;;22.43;29.24
27304;BME280;14791;52.392;13.092;2023-02-28T14:27:32;102661.66;;;22.54;28.97
27304;BME280;14791;52.392;13.092;2023-02-28T14:32:50;102661.89;;;22.57;28.92
27304;BME280;14791;52.392;13.092;2023-02-28T14:35:29;102666.22;;;22.59;28.76
27304;BME280;14791;52.392;13.092;2023-02-28T14:37:53;102661.16;;;22.60;28.50
27304;BME280;14791;52.392;13.092;2023-02-28T14:40:34;102658.55;;;22.59;28.25
27304;BME280;14791;52.392;13.092;2023-02-28T14:43:19;102653.98;;;22.54;27.99
27304;BME280;14791;52.392;13.092;2023-02-28T14:45:38;102652.13;;;22.43;28.03
27304;BME280;14791;52.392;13.092;2023-02-28T14:48:09;102651.16;;;22.33;27.99
27304;BME280;14791;52.392;13.092;2023-02-28T14:50:38;102653.27;;;22.23;27.84
27304;BME280;14791;52.392;13.092;2023-02-28T14:53:14;102654.38;;;22.15;27.65
27304;BME280;14791;52.392;13.092;2023-02-28T14:55:44;102651.14;;;22.04;27.44
27304;BME280;14791;52.392;13.092;2023-02-28T14:58:25;102645.69;;;21.87;27.44
27304;BME280;14791;52.392;13.092;2023-02-28T15:00:57;102657.66;;;21.74;27.42
27304;BME280;14791;52.392;13.092;2023-02-28T15:03:37;102653.33;;;21.60;27.72
27304;BME280;14791;52.392;13.092;2023-02-28T15:06:15;102655.41;;;21.51;27.64
27304;BME280;14791;52.392;13.092;2023-02-28T15:08:45;102650.68;;;21.41;27.55